Time;durP1;ratioP1;P1;durP2;ratioP2;P2;SDS_P1;SDS_P2;PMS_P1;PMS_P2;Temp;Humidity;BMP_temperature;BMP_pressure;BME280_temperature;BME280_humidity;BME280_pressure;Samples;Min_cycle;Max_cycle;Signal;HPM_P1;HPM_P2
2021/12/12 00:02:18;;;;;;;26.98;11.43;;;;;;;4.66;100.00;101946.47;5035128;28;20144;-70
2021/12/12 00:04:48;;;;;;;23.02;10.98;;;;;;;4.73;100.00;101939.50;5033098;28;20049;-69
2021/12/12 00:07:21;;;;;;;27.13;11.20;;;;;;;4.65;100.00;101948.25;5036322;28;20181;-69
2021/12/12 00:09:53;;;;;;;22.55;10.52;;;;;;;4.72;100.00;101943.91;5039784;28;20095;-69
2021/12/12 00:12:23;;;;;;;28.65;10.90;;;;;;;4.69;100.00;101938.59;5030342;28;20057;-69
2021/12/12 00:14:52;;;;;;;29.08;10.00;;;;;;;4.66;100.00;101939.41;5035812;28;20135;-69
2021/12/12 00:17:21;;;;;;;32.13;11.77;;;;;;;4.67;100.00;101935.03;5037342;28;20136;-70
2021/12/12 00:19:50;;;;;;;27.83;11.60;;;;;;;4.69;100.00;101930.66;5036119;28;20053;-69
2021/12/12 00:22:26;;;;;;;24.95;11.65;;;;;;;4.64;100.00;101917.38;5032440;28;20323;-69
2021/12/12 00:24:55;;;;;;;24.70;9.57;;;;;;;4.69;100.00;101920.06;5038561;28;20541;-69
2021/12/12 00:27:24;;;;;;;26.23;11.05;;;;;;;4.67;100.00;101911.25;5035937;28;20056;-69
2021/12/12 00:29:52;;;;;;;26.70;10.48;;;;;;;4.71;100.00;101913.03;5034586;28;20475;-69
2021/12/12 00:32:23;;;;;;;24.15;11.00;;;;;;;4.70;100.00;101911.28;5034824;28;20057;-69
2021/12/12 00:34:57;;;;;;;26.52;10.15;;;;;;;4.70;100.00;101920.94;5034268;28;20464;-69
2021/12/12 00:37:26;;;;;;;27.80;10.50;;;;;;;4.71;100.00;101910.41;5037717;28;20052;-69
2021/12/12 00:39:57;;;;;;;22.88;10.85;;;;;;;4.78;100.00;101898.13;5034421;28;20135;-69
2021/12/12 00:42:29;;;;;;;21.27;8.95;;;;;;;4.75;100.00;101900.72;5038685;28;20493;-69
2021/12/12 00:44:59;;;;;;;18.30;9.82;;;;;;;4.72;100.00;101909.53;5033886;28;20029;-69
2021/12/12 00:47:26;;;;;;;24.08;10.60;;;;;;;4.75;100.00;101900.72;5034229;28;20246;-69
2021/12/12 00:50:11;;;;;;;28.25;10.65;;;;;;;4.73;100.00;101891.91;5033359;28;20087;-69
2021/12/12 00:52:41;;;;;;;25.02;10.48;;;;;;;4.73;100.00;101895.41;5029044;28;20331;-69
2021/12/12 00:55:09;;;;;;;29.58;9.20;;;;;;;4.75;100.00;101895.44;5035342;28;20083;-69
2021/12/12 00:57:37;;;;;;;20.58;8.23;;;;;;;4.80;100.00;101901.66;5036803;28;20063;-69
2021/12/12 01:00:08;;;;;;;26.90;11.30;;;;;;;4.80;100.00;101904.28;5033351;28;20053;-69
2021/12/12 01:02:37;;;;;;;20.50;8.75;;;;;;;4.79;100.00;101903.41;5034805;28;20384;-69
2021/12/12 01:05:08;;;;;;;23.00;9.43;;;;;;;4.76;100.00;101902.50;5034042;28;20044;-69
2021/12/12 01:07:43;;;;;;;25.75;11.00;;;;;;;4.75;100.00;101890.16;5032897;28;20048;-69
2021/12/12 01:10:16;;;;;;;23.27;10.00;;;;;;;4.77;100.00;101888.44;5032999;28;20052;-69
2021/12/12 01:12:45;;;;;;;25.77;10.23;;;;;;;4.74;100.00;101894.56;5030800;28;20545;-69
2021/12/12 01:15:17;;;;;;;20.40;8.85;;;;;;;4.73;100.00;101881.31;5031509;28;20194;-69
2021/12/12 01:17:54;;;;;;;25.98;9.77;;;;;;;4.72;100.00;101887.50;5034120;28;20052;-69
2021/12/12 01:20:30;;;;;;;18.23;8.68;;;;;;;4.77;100.00;101883.13;5032102;28;20132;-69
2021/12/12 01:23:07;;;;;;;25.60;9.25;;;;;;;4.80;100.00;101888.44;5036618;28;20413;-69
2021/12/12 01:25:43;;;;;;;18.65;8.60;;;;;;;4.81;100.00;101884.94;5033710;28;20053;-69
2021/12/12 01:28:12;;;;;;;26.95;10.65;;;;;;;4.81;100.00;101884.94;5036031;28;20080;-69
2021/12/12 01:30:41;;;;;;;22.13;8.27;;;;;;;4.82;100.00;101892.88;5033301;28;20060;-69
2021/12/12 01:33:11;;;;;;;18.58;8.80;;;;;;;4.84;100.00;101887.59;5034766;28;20063;-69
2021/12/12 01:35:41;;;;;;;19.83;9.77;;;;;;;4.85;100.00;101879.69;5033132;28;20148;-71
2021/12/12 01:40:58;;;;;;;17.85;9.32;;;;;;;4.81;100.00;101884.94;5034646;28;20049;-72
2021/12/12 01:43:29;;;;;;;21.90;9.35;;;;;;;4.84;100.00;101877.91;5033383;28;20041;-72
2021/12/12 01:46:04;;;;;;;24.15;9.63;;;;;;;4.79;100.00;101890.19;5034580;28;20485;-72
2021/12/12 01:48:37;;;;;;;20.80;9.15;;;;;;;4.81;100.00;101895.50;5032859;28;20433;-72
2021/12/12 01:51:09;;;;;;;30.73;10.88;;;;;;;4.79;100.00;101886.69;5035573;28;20049;-72
2021/12/12 01:53:41;;;;;;;25.98;10.25;;;;;;;4.81;100.00;101866.41;5030278;28;20136;-70
2021/12/12 01:56:14;;;;;;;21.00;9.27;;;;;;;4.87;100.00;101879.69;5034244;28;20055;-69
2021/12/12 01:58:45;;;;;;;28.70;10.07;;;;;;;4.84;100.00;101875.25;5033680;28;20053;-69
2021/12/12 02:01:17;;;;;;;22.10;10.40;;;;;;;4.82;100.00;101871.72;5034591;28;20052;-69
2021/12/12 02:03:49;;;;;;;17.58;7.88;;;;;;;4.81;100.00;101877.88;5027910;28;20074;-69
2021/12/12 02:06:20;;;;;;;19.88;9.45;;;;;;;4.82;100.00;101870.84;5034349;28;20055;-69
2021/12/12 02:08:51;;;;;;;22.20;10.10;;;;;;;4.85;100.00;101854.97;5031936;28;20057;-72
2021/12/12 02:11:21;;;;;;;22.35;8.65;;;;;;;4.88;100.00;101864.69;5029117;28;20053;-74
2021/12/12 02:13:53;;;;;;;19.30;8.43;;;;;;;4.86;100.00;101867.34;5030903;28;20377;-73
2021/12/12 02:16:24;;;;;;;18.35;8.05;;;;;;;4.84;100.00;101869.97;5034477;28;20080;-74
2021/12/12 02:18:56;;;;;;;17.40;8.40;;;;;;;4.88;100.00;101870.00;5033987;28;20464;-73
2021/12/12 02:21:32;;;;;;;22.88;9.10;;;;;;;4.91;100.00;101870.91;5033221;28;20080;-72
2021/12/12 02:35:05;;;;;;;16.13;7.57;;;;;;;4.97;100.00;101872.69;5034382;28;20053;-69
2021/12/12 02:35:43;;;;;;;17.58;8.77;;;;;;;4.99;100.00;101861.28;5033886;28;20168;-69
2021/12/12 02:38:14;;;;;;;19.27;9.70;;;;;;;5.01;100.00;101871.88;5033235;28;20049;-69
2021/12/12 02:40:46;;;;;;;23.58;9.30;;;;;;;5.00;100.00;101860.38;5033586;28;20765;-69
2021/12/12 02:43:20;;;;;;;19.38;10.25;;;;;;;5.00;100.00;101868.31;5032457;28;20087;-69
2021/12/12 02:45:51;;;;;;;21.83;10.15;;;;;;;4.96;100.00;101865.66;5029008;28;20104;-69
2021/12/12 02:48:20;;;;;;;21.23;10.00;;;;;;;4.94;100.00;101865.63;5035123;28;20404;-69
2021/12/12 02:50:51;;;;;;;18.42;10.52;;;;;;;4.95;100.00;101850.66;5034723;28;20153;-69
2021/12/12 02:53:22;;;;;;;20.63;10.85;;;;;;;4.95;100.00;101842.72;5029697;28;20056;-69
2021/12/12 02:55:56;;;;;;;25.50;12.60;;;;;;;4.93;100.00;101847.09;5033264;28;20049;-69
2021/12/12 02:58:26;;;;;;;29.25;13.13;;;;;;;4.91;100.00;101856.81;5031596;28;20063;-69
2021/12/12 03:01:10;;;;;;;22.30;11.20;;;;;;;4.96;100.00;101861.25;5034213;28;20130;-69
2021/12/12 03:03:40;;;;;;;26.08;12.63;;;;;;;4.90;100.00;101858.53;5033719;28;20076;-69
2021/12/12 03:06:13;;;;;;;23.77;11.32;;;;;;;4.95;100.00;101862.09;5033562;28;20107;-69
2021/12/12 03:08:44;;;;;;;24.58;12.07;;;;;;;4.96;100.00;101857.72;5032064;28;20041;-69
2021/12/12 03:11:14;;;;;;;25.73;12.45;;;;;;;4.95;100.00;101855.94;5030669;28;20088;-69
2021/12/12 03:13:43;;;;;;;24.52;13.05;;;;;;;4.97;100.00;101857.72;5030292;28;20063;-69
2021/12/12 03:16:12;;;;;;;22.67;11.45;;;;;;;4.98;100.00;101851.56;5033947;28;20053;-69
2021/12/12 03:18:43;;;;;;;27.60;13.45;;;;;;;4.97;100.00;101855.09;5030081;28;20077;-69
2021/12/12 03:21:16;;;;;;;25.55;13.48;;;;;;;4.97;100.00;101857.72;5034217;28;20310;-69
2021/12/12 03:23:49;;;;;;;25.00;13.57;;;;;;;5.00;100.00;101848.91;5034487;28;20060;-69
2021/12/12 03:26:19;;;;;;;31.50;14.15;;;;;;;5.03;100.00;101846.31;5037858;28;20041;-69
2021/12/12 03:28:51;;;;;;;26.67;13.73;;;;;;;5.04;100.00;101840.16;5034355;28;20102;-69
2021/12/12 03:31:22;;;;;;;26.25;14.50;;;;;;;5.04;100.00;101838.38;5036154;28;20051;-69
2021/12/12 03:33:50;;;;;;;30.42;14.65;;;;;;;5.07;100.00;101842.78;5034908;28;20392;-69
2021/12/12 03:36:19;;;;;;;31.25;15.25;;;;;;;5.09;100.00;101843.72;5034280;28;20048;-69
2021/12/12 03:38:49;;;;;;;34.58;14.27;;;;;;;5.14;100.00;101839.34;5037871;28;20045;-69
2021/12/12 03:41:21;;;;;;;30.42;15.68;;;;;;;5.17;100.00;101838.44;5036227;28;20053;-69
2021/12/12 03:43:55;;;;;;;30.83;15.85;;;;;;;5.10;100.00;101845.47;5034734;28;20124;-69
2021/12/12 03:46:23;;;;;;;;;;;;;;;5.20;100.00;101847.28;5038493;28;20052;-69
2021/12/12 03:48:52;;;;;;;27.02;15.75;;;;;;;5.21;100.00;101843.78;5036654;28;19935;-69
2021/12/12 03:51:23;;;;;;;34.83;15.60;;;;;;;5.33;100.00;101852.66;5035368;28;20193;-68
2021/12/12 03:53:52;;;;;;;35.90;15.00;;;;;;;5.30;100.00;101850.00;5032231;28;20288;-69
2021/12/12 03:56:21;;;;;;;33.95;16.50;;;;;;;5.32;100.00;101850.91;5025279;28;20057;-69
2021/12/12 03:58:49;;;;;;;32.03;17.40;;;;;;;5.32;100.00;101850.91;5035624;28;20156;-69
2021/12/12 04:01:21;;;;;;;31.15;16.13;;;;;;;5.33;100.00;101852.66;5035070;28;20134;-68
2021/12/12 04:03:51;;;;;;;32.90;15.27;;;;;;;5.34;100.00;101862.38;5032428;28;20091;-69
2021/12/12 04:06:24;;;;;;;33.00;16.15;;;;;;;5.31;100.00;101863.25;5034273;28;20045;-69
2021/12/12 04:08:53;;;;;;;32.78;16.30;;;;;;;5.36;100.00;101864.16;5036638;28;20049;-69
2021/12/12 04:11:27;;;;;;;40.92;16.70;;;;;;;5.38;100.00;101870.34;5031611;28;20065;-69
2021/12/12 04:13:57;;;;;;;38.55;18.77;;;;;;;5.35;100.00;101866.81;5035185;28;20266;-69
2021/12/12 04:16:27;;;;;;;31.65;15.95;;;;;;;5.36;100.00;101872.09;5029336;28;20154;-69
2021/12/12 04:18:56;;;;;;;31.15;16.30;;;;;;;5.40;100.00;101871.22;5036115;28;20327;-69
2021/12/12 04:21:25;;;;;;;34.35;16.83;;;;;;;5.40;100.00;101871.22;5037050;28;20055;-69
2021/12/12 04:23:54;;;;;;;32.85;16.63;;;;;;;5.43;100.00;101863.31;5035500;28;20057;-69
2021/12/12 04:26:26;;;;;;;38.85;16.95;;;;;;;5.46;100.00;101866.84;5035522;28;20447;-69
2021/12/12 04:28:59;;;;;;;38.58;18.15;;;;;;;5.45;100.00;101873.00;5032338;28;20044;-69
2021/12/12 04:31:28;;;;;;;40.65;18.73;;;;;;;5.52;100.00;101862.47;5035371;28;20202;-69
2021/12/12 04:33:57;;;;;;;36.10;17.60;;;;;;;5.52;100.00;101865.13;5034599;28;20061;-69
2021/12/12 04:36:27;;;;;;;39.15;18.92;;;;;;;5.55;100.00;101858.94;5036305;28;20300;-69
2021/12/12 04:38:59;;;;;;;39.42;19.90;;;;;;;5.56;100.00;101852.78;5031303;28;20365;-69
2021/12/12 04:41:29;;;;;;;45.38;20.63;;;;;;;5.64;100.00;101860.78;5034272;28;20077;-69
2021/12/12 04:43:57;;;;;;;45.67;19.35;;;;;;;5.68;100.00;101859.91;5031901;28;20059;-69
2021/12/12 04:46:36;;;;;;;41.95;17.90;;;;;;;5.70;100.00;101860.78;5036993;28;20051;-69
2021/12/12 04:51:59;;;;;;;42.90;19.20;;;;;;;5.73;100.00;101853.72;5035724;28;20123;-68
2021/12/12 04:54:33;;;;;;;51.35;20.95;;;;;;;5.73;100.00;101863.44;5030983;28;20522;-68
2021/12/12 04:57:07;;;;;;;43.08;20.55;;;;;;;5.78;100.00;101859.06;5035754;28;20045;-68
2021/12/12 04:59:47;;;;;;;40.88;20.20;;;;;;;5.76;100.00;101851.09;5036392;28;20189;-71
2021/12/12 05:02:20;;;;;;;55.28;22.88;;;;;;;5.81;100.00;101861.72;5037423;28;20054;-69
2021/12/12 05:04:54;;;;;;;52.13;22.42;;;;;;;5.82;100.00;101871.41;5034571;28;20126;-69
2021/12/12 05:07:36;;;;;;;41.55;18.40;;;;;;;5.86;100.00;101865.28;5036921;28;20047;-69
2021/12/12 05:10:08;;;;;;;49.88;19.50;;;;;;;5.88;100.00;101868.81;5036029;28;20048;-69
2021/12/12 05:12:44;;;;;;;47.55;20.50;;;;;;;5.93;100.00;101861.75;5029621;28;20045;-70
2021/12/12 05:15:18;;;;;;;46.92;20.88;;;;;;;5.97;100.00;101866.22;5034050;28;21558;-69
2021/12/12 05:17:50;;;;;;;51.38;21.30;;;;;;;5.98;100.00;101875.94;5035521;28;20041;-69
2021/12/12 05:20:22;;;;;;;49.42;22.45;;;;;;;6.02;100.00;101881.25;5034030;28;20053;-69
2021/12/12 05:22:53;;;;;;;49.08;21.77;;;;;;;6.05;100.00;101889.22;5032634;28;20144;-68
2021/12/12 05:25:35;;;;;;;55.90;23.25;;;;;;;6.02;100.00;101884.78;5032054;28;20055;-68
2021/12/12 05:28:09;;;;;;;50.50;22.55;;;;;;;6.07;100.00;101884.81;5031024;28;20496;-70
2021/12/12 05:30:41;;;;;;;48.55;21.35;;;;;;;6.12;100.00;101883.06;5035875;28;20382;-70
2021/12/12 05:33:13;;;;;;;56.10;24.75;;;;;;;6.10;100.00;101888.34;5033072;28;20107;-71
2021/12/12 05:35:42;;;;;;;59.42;24.15;;;;;;;6.15;100.00;101893.69;5035247;28;20400;-69
2021/12/12 05:38:16;;;;;;;56.28;23.52;;;;;;;6.12;100.00;101886.59;5031901;28;20041;-71
2021/12/12 05:40:47;;;;;;;59.22;23.42;;;;;;;6.12;100.00;101886.59;5035735;28;20168;-70
2021/12/12 05:43:18;;;;;;;49.75;21.17;;;;;;;6.19;100.00;101887.50;5033696;28;20053;-70
2021/12/12 05:45:47;;;;;;;64.15;26.38;;;;;;;6.18;100.00;101891.03;5033015;28;20138;-69
2021/12/12 05:48:16;;;;;;;46.58;21.02;;;;;;;6.23;100.00;101891.94;5032508;28;20060;-69
2021/12/12 05:50:45;;;;;;;54.83;24.13;;;;;;;6.17;100.00;101886.59;5036171;28;20138;-71
2021/12/12 05:53:16;;;;;;;60.42;25.20;;;;;;;6.22;100.00;101895.47;5028360;28;20115;-69
2021/12/12 05:55:46;;;;;;;61.33;24.55;;;;;;;6.21;100.00;101895.44;5035582;28;20059;-68
2021/12/12 05:58:17;;;;;;;59.22;25.67;;;;;;;6.28;100.00;101895.47;5032552;28;20051;-69
2021/12/12 06:00:50;;;;;;;52.33;21.48;;;;;;;6.33;100.00;101904.34;5032997;28;20047;-69
2021/12/12 06:03:23;;;;;;;54.13;22.00;;;;;;;6.46;100.00;101909.66;5034232;28;20045;-69
2021/12/12 06:05:54;;;;;;;66.70;28.95;;;;;;;6.40;100.00;101907.84;5035049;28;20496;-68
2021/12/12 06:08:23;;;;;;;55.33;23.75;;;;;;;6.38;100.00;101916.69;5031875;28;20091;-68
2021/12/12 06:10:54;;;;;;;57.42;24.13;;;;;;;6.39;100.00;101908.75;5033215;28;20437;-69
2021/12/12 06:13:27;;;;;;;71.05;25.95;;;;;;;6.41;100.00;101909.63;5033806;28;20057;-69
2021/12/12 06:15:56;;;;;;;58.63;25.92;;;;;;;6.42;100.00;101916.72;5034038;28;20052;-69
2021/12/12 06:18:30;;;;;;;57.97;24.42;;;;;;;6.44;100.00;101920.25;5034609;28;20160;-69
2021/12/12 06:20:59;;;;;;;63.20;23.67;;;;;;;6.44;100.00;101917.59;5033415;28;20037;-69
2021/12/12 06:23:29;;;;;;;67.90;28.00;;;;;;;6.53;100.00;101917.59;5033903;28;20131;-69
2021/12/12 06:25:57;;;;;;;62.67;26.77;;;;;;;6.52;100.00;101912.28;5033418;28;20465;-69
2021/12/12 06:28:29;;;;;;;58.40;25.08;;;;;;;6.54;100.00;101915.88;5036063;28;20064;-69
2021/12/12 06:30:58;;;;;;;68.72;27.48;;;;;;;6.52;100.00;101909.66;5031816;28;20045;-69
2021/12/12 06:33:27;;;;;;;65.47;27.02;;;;;;;6.56;100.00;101913.22;5033740;28;20414;-69
2021/12/12 06:35:56;;;;;;;67.28;26.45;;;;;;;6.60;100.00;101910.53;5032810;28;20052;-69
2021/12/12 06:38:25;;;;;;;70.78;26.60;;;;;;;6.61;100.00;101920.28;5032703;28;20052;-69
2021/12/12 06:40:54;;;;;;;66.93;27.23;;;;;;;6.65;100.00;101913.22;5034420;28;20051;-69
2021/12/12 06:43:23;;;;;;;69.93;25.33;;;;;;;6.65;100.00;101906.13;5032064;28;20134;-69
2021/12/12 06:45:52;;;;;;;65.45;25.35;;;;;;;6.65;100.00;101922.03;5031630;28;20045;-69
2021/12/12 06:48:20;;;;;;;69.05;25.88;;;;;;;6.65;100.00;101908.78;5032605;28;20114;-69
2021/12/12 06:50:52;;;;;;;66.05;24.25;;;;;;;6.72;100.00;101910.59;5033980;28;20051;-69
2021/12/12 06:53:23;;;;;;;66.03;25.40;;;;;;;6.76;100.00;101914.13;5027910;28;20044;-69
2021/12/12 06:55:53;;;;;;;69.13;25.92;;;;;;;6.74;100.00;101921.16;5033524;28;20042;-69
2021/12/12 06:58:22;;;;;;;73.68;27.83;;;;;;;6.73;100.00;101916.75;5036703;28;20052;-69
2021/12/12 07:00:57;;;;;;;75.28;27.02;;;;;;;6.80;100.00;101926.50;5037525;28;20068;-69
2021/12/12 07:03:26;;;;;;;63.72;25.70;;;;;;;6.75;100.00;101922.06;5034747;28;20049;-70
2021/12/12 07:05:54;;;;;;;69.63;25.92;;;;;;;6.80;100.00;101926.50;5038063;28;20053;-69
2021/12/12 07:08:24;;;;;;;69.75;25.75;;;;;;;6.85;100.00;101919.41;5035172;28;20072;-69
2021/12/12 07:10:52;;;;;;;69.93;25.58;;;;;;;6.86;100.00;101923.84;5036090;28;20041;-70
2021/12/12 07:13:21;;;;;;;71.97;26.67;;;;;;;6.89;100.00;101933.56;5029401;28;20049;-71
2021/12/12 07:15:51;;;;;;;64.15;27.05;;;;;;;6.87;100.00;101932.69;5034564;28;20091;-69
2021/12/12 07:18:23;;;;;;;71.90;25.45;;;;;;;6.96;100.00;101937.13;5038118;28;20055;-69
2021/12/12 07:20:53;;;;;;;70.97;27.00;;;;;;;6.99;100.00;101939.78;5035450;28;20049;-69
2021/12/12 07:23:21;;;;;;;85.32;26.75;;;;;;;6.99;100.00;101947.75;5035075;28;20705;-69
2021/12/12 07:25:49;;;;;;;64.07;25.52;;;;;;;7.01;100.00;101952.16;5036145;28;20072;-69
2021/12/12 07:28:18;;;;;;;75.43;24.98;;;;;;;7.06;100.00;101946.84;5037604;28;20171;-69
2021/12/12 07:30:46;;;;;;;71.85;26.27;;;;;;;7.04;100.00;101946.84;5035698;28;20130;-69
2021/12/12 07:33:19;;;;;;;70.13;27.48;;;;;;;7.11;100.00;101953.91;5037083;28;20076;-69
2021/12/12 07:35:52;;;;;;;69.95;25.75;;;;;;;7.15;100.00;101948.63;5034295;28;20053;-70
2021/12/12 07:38:22;;;;;;;59.42;23.15;;;;;;;7.16;100.00;101951.28;5037655;28;20947;-70
2021/12/12 07:40:53;;;;;;;73.03;27.75;;;;;;;7.15;100.00;101957.47;5036451;28;20053;-71
2021/12/12 07:43:27;;;;;;;68.20;24.80;;;;;;;7.16;100.00;101955.72;5039561;28;20057;-70
2021/12/12 07:45:57;;;;;;;84.00;27.40;;;;;;;7.18;100.00;101956.59;5039377;28;20076;-70
2021/12/12 07:48:26;;;;;;;67.80;25.40;;;;;;;7.21;100.00;101956.59;5037229;28;20491;-70
2021/12/12 07:50:57;;;;;;;82.43;27.30;;;;;;;7.23;100.00;101962.78;5036548;28;20231;-69
2021/12/12 07:53:27;;;;;;;63.83;25.27;;;;;;;7.21;100.00;101956.59;5031006;28;20057;-71
2021/12/12 07:55:56;;;;;;;73.75;26.17;;;;;;;7.29;100.00;101963.66;5033189;28;20052;-70
2021/12/12 07:58:25;;;;;;;85.95;28.52;;;;;;;7.27;100.00;101964.53;5036697;28;20079;-70
2021/12/12 08:00:57;;;;;;;65.05;22.45;;;;;;;7.27;100.00;101965.44;5035273;28;20176;-70
2021/12/12 08:03:28;;;;;;;63.20;22.90;;;;;;;7.34;100.00;101976.03;5036447;28;20057;-70
2021/12/12 08:05:59;;;;;;;61.38;24.65;;;;;;;7.31;100.00;101976.94;5037922;28;20055;-70
2021/12/12 08:08:30;;;;;;;76.10;26.02;;;;;;;7.35;100.00;101977.81;5031761;28;20040;-70
2021/12/12 08:10:59;;;;;;;78.13;28.80;;;;;;;7.39;100.00;101987.53;5035423;28;20757;-70
2021/12/12 08:13:27;;;;;;;64.38;24.38;;;;;;;7.37;100.00;101984.00;5033890;28;20075;-70
2021/12/12 08:15:55;;;;;;;75.28;25.65;;;;;;;7.38;100.00;101999.06;5035874;28;20045;-70
2021/12/12 08:18:23;;;;;;;78.90;26.80;;;;;;;7.42;100.00;101996.41;5033152;28;20052;-70
2021/12/12 08:20:53;;;;;;;65.90;24.38;;;;;;;7.43;100.00;102002.59;5036971;28;20143;-70
2021/12/12 08:23:24;;;;;;;62.83;24.05;;;;;;;7.43;100.00;102006.13;5033635;28;20678;-70
2021/12/12 08:25:54;;;;;;;81.65;27.00;;;;;;;7.50;100.00;102008.81;5037380;28;20049;-70
2021/12/12 08:28:22;;;;;;;72.35;25.42;;;;;;;7.47;100.00;102004.34;5037619;28;20049;-70
2021/12/12 08:30:51;;;;;;;74.32;26.17;;;;;;;7.50;100.00;102011.44;5036144;28;20112;-70
2021/12/12 08:33:20;;;;;;;72.40;25.77;;;;;;;7.51;100.00;102010.56;5037341;28;20052;-71
2021/12/12 08:35:48;;;;;;;80.32;26.27;;;;;;;7.53;100.00;102011.47;5034899;28;20045;-70
2021/12/12 08:38:17;;;;;;;67.80;25.38;;;;;;;7.50;100.00;102014.09;5035699;28;20080;-70
2021/12/12 08:40:55;;;;;;;69.53;25.27;;;;;;;7.50;100.00;102011.44;5031662;28;20056;-70
2021/12/12 08:43:25;;;;;;;64.20;22.90;;;;;;;7.53;100.00;102015.00;5037293;28;20045;-70
2021/12/12 08:45:56;;;;;;;67.93;24.05;;;;;;;7.56;100.00;102022.06;5034011;28;20052;-70
2021/12/12 08:48:30;;;;;;;73.20;23.85;;;;;;;7.55;100.00;102013.22;5015177;28;20057;-70
2021/12/12 08:51:02;;;;;;;58.78;23.08;;;;;;;7.58;100.00;102022.97;5033888;28;20053;-72
2021/12/12 08:53:30;;;;;;;51.20;22.45;;;;;;;7.61;100.00;102022.94;5032918;28;20133;-72
2021/12/12 08:56:00;;;;;;;53.92;20.48;;;;;;;7.63;100.00;102027.38;5034209;28;20049;-73
2021/12/12 08:58:30;;;;;;;42.55;18.10;;;;;;;7.65;100.00;102035.34;5034091;28;20087;-73
2021/12/12 09:01:01;;;;;;;38.47;17.98;;;;;;;7.70;100.00;102040.66;5035660;28;20045;-73
2021/12/12 09:03:36;;;;;;;46.08;20.42;;;;;;;7.70;100.00;102033.56;5034310;28;20041;-73
2021/12/12 09:06:05;;;;;;;38.53;17.05;;;;;;;7.72;100.00;102042.41;5033387;28;20076;-70
2021/12/12 09:08:41;;;;;;;42.20;18.73;;;;;;;7.76;100.00;102033.53;5034243;28;20076;-69
2021/12/12 09:11:16;;;;;;;43.35;18.83;;;;;;;7.79;100.00;102044.19;5032539;28;20053;-70
2021/12/12 09:13:48;;;;;;;39.05;17.50;;;;;;;7.81;100.00;102045.06;5030832;28;20589;-72
2021/12/12 09:16:20;;;;;;;39.65;16.42;;;;;;;7.86;100.00;102040.63;5033072;28;20049;-72
2021/12/12 09:18:53;;;;;;;43.38;16.13;;;;;;;7.89;100.00;102046.84;5031759;28;20115;-73
2021/12/12 09:21:26;;;;;;;41.22;18.02;;;;;;;7.87;100.00;102057.47;5031217;28;20132;-73
2021/12/12 09:24:06;;;;;;;37.75;17.30;;;;;;;7.89;100.00;102057.47;5015598;28;20164;-72
2021/12/12 09:26:40;;;;;;;42.08;18.27;;;;;;;7.86;100.00;102056.56;5032119;28;20056;-72
2021/12/12 09:29:13;;;;;;;;;;;;;;;7.87;100.00;102068.09;5034487;28;20045;-73
2021/12/12 09:31:49;;;;;;;35.70;18.08;;;;;;;7.87;100.00;102070.75;5033557;28;19928;-73
2021/12/12 09:34:24;;;;;;;34.20;15.93;;;;;;;7.94;100.00;102071.63;5031488;28;20136;-73
2021/12/12 09:37:20;;;;;;;37.70;15.45;;;;;;;7.90;100.00;102075.16;5034910;28;20049;-70
2021/12/12 09:39:58;;;;;;;33.83;14.75;;;;;;;7.91;100.00;102071.63;5033101;28;20041;-70
2021/12/12 09:42:50;;;;;;;30.98;14.68;;;;;;;7.90;100.00;102064.53;5034815;28;20454;-70
2021/12/12 09:45:39;;;;;;;30.67;14.18;;;;;;;7.91;100.00;102076.94;5033247;28;20052;-73
2021/12/12 09:51:35;;;;;;;29.58;14.02;;;;;;;7.96;100.00;102077.81;5033871;28;20052;-69
2021/12/12 09:54:17;;;;;;;28.80;14.02;;;;;;;7.94;100.00;102084.94;5028449;28;20072;-69
2021/12/12 09:56:51;;;;;;;30.30;14.27;;;;;;;7.93;100.00;102081.34;5034972;28;20094;-74
2021/12/12 09:59:39;;;;;;;27.55;13.52;;;;;;;7.93;100.00;102076.03;5030021;28;20091;-72
2021/12/12 10:02:17;;;;;;;26.42;13.10;;;;;;;7.98;100.00;102068.94;5036014;28;20064;-69
2021/12/12 10:04:56;;;;;;;27.45;14.05;;;;;;;8.01;100.00;102070.72;5034462;28;20053;-69
2021/12/12 10:07:35;;;;;;;29.45;13.35;;;;;;;8.02;100.00;102072.50;5034434;28;20064;-71
2021/12/12 10:10:07;;;;;;;29.30;12.65;;;;;;;8.06;100.00;102074.25;5034055;28;20084;-70
2021/12/12 10:12:44;;;;;;;32.67;14.73;;;;;;;8.10;100.00;102077.78;5030956;28;20052;-71
2021/12/12 10:15:22;;;;;;;31.48;13.52;;;;;;;8.16;100.00;102081.34;5033494;28;20144;-72
2021/12/12 10:18:00;;;;;;;30.27;14.30;;;;;;;8.19;100.00;102072.47;5031836;28;20053;-69
2021/12/12 10:20:33;;;;;;;35.47;14.38;;;;;;;8.21;100.00;102076.88;5032921;28;20499;-69
2021/12/12 10:23:13;;;;;;;34.85;13.38;;;;;;;8.24;100.00;102076.00;5031719;28;20051;-69
2021/12/12 10:25:52;;;;;;;31.38;15.05;;;;;;;8.23;100.00;102075.09;5033950;28;20053;-69
2021/12/12 10:28:23;;;;;;;35.58;15.05;;;;;;;8.23;100.00;102080.41;5034057;28;20053;-69
2021/12/12 10:31:00;;;;;;;30.48;12.95;;;;;;;8.26;100.00;102078.63;5033243;28;20052;-69
2021/12/12 10:33:35;;;;;;;26.98;12.95;;;;;;;8.25;100.00;102082.19;5031801;28;20047;-69
2021/12/12 10:36:10;;;;;;;28.58;14.68;;;;;;;8.29;100.00;102082.19;5034469;28;20053;-69
2021/12/12 10:38:46;;;;;;;29.50;13.52;;;;;;;8.32;100.00;102082.16;5032440;28;20485;-69
2021/12/12 10:41:18;;;;;;;32.45;14.35;;;;;;;8.30;100.00;102081.28;5035401;28;20053;-69
2021/12/12 10:43:54;;;;;;;26.75;13.18;;;;;;;8.34;100.00;102085.72;5032838;28;20057;-69
2021/12/12 10:46:33;;;;;;;28.40;14.02;;;;;;;8.31;100.00;102084.81;5032161;28;20127;-69
2021/12/12 10:49:05;;;;;;;27.92;13.52;;;;;;;8.33;100.00;102083.06;5030531;28;20053;-69
2021/12/12 10:51:40;;;;;;;26.38;12.38;;;;;;;8.36;100.00;102083.94;5032273;28;20081;-72
2021/12/12 10:54:13;;;;;;;29.45;11.98;;;;;;;8.36;100.00;102091.00;5028271;28;20049;-72
2021/12/12 10:56:43;;;;;;;23.92;11.20;;;;;;;8.39;100.00;102083.03;5032420;28;20056;-73
2021/12/12 10:59:21;;;;;;;27.02;13.15;;;;;;;8.43;100.00;102090.16;5033733;28;20784;-72
2021/12/12 11:01:57;;;;;;;25.05;11.75;;;;;;;8.44;100.00;102091.03;5014150;28;20053;-72
2021/12/12 11:04:38;;;;;;;20.70;10.45;;;;;;;8.43;100.00;102086.59;5030681;28;20071;-73
2021/12/12 11:07:11;;;;;;;21.30;10.82;;;;;;;8.43;100.00;102091.91;5032615;28;20056;-73
2021/12/12 11:09:45;;;;;;;23.52;10.80;;;;;;;8.42;100.00;102091.00;5033397;28;20182;-73
2021/12/12 11:12:18;;;;;;;21.13;10.20;;;;;;;8.46;100.00;102095.44;5033213;28;20063;-73
2021/12/12 11:14:56;;;;;;;20.33;9.02;;;;;;;8.48;100.00;102087.47;5031311;28;20049;-73
2021/12/12 11:17:28;;;;;;;16.17;8.45;;;;;;;8.48;100.00;102095.44;5032721;28;20305;-73
2021/12/12 11:20:01;;;;;;;17.38;8.93;;;;;;;8.46;100.00;102098.09;5032574;28;20144;-72
2021/12/12 11:22:33;;;;;;;21.48;9.85;;;;;;;8.47;100.00;102096.34;5036130;28;20501;-73
2021/12/12 11:25:07;;;;;;;20.98;9.85;;;;;;;8.45;100.00;102095.47;5031322;28;20059;-73
2021/12/12 11:27:40;;;;;;;17.65;9.18;;;;;;;8.46;100.00;102100.78;5032231;28;20052;-73
2021/12/12 11:30:12;;;;;;;20.33;9.50;;;;;;;8.48;100.00;102100.78;5031728;28;20051;-72
2021/12/12 11:32:42;;;;;;;17.58;9.32;;;;;;;8.52;100.00;102106.09;5031862;28;20056;-73
2021/12/12 11:35:13;;;;;;;17.67;9.38;;;;;;;8.55;100.00;102102.53;5029030;28;21043;-74
2021/12/12 11:37:46;;;;;;;16.30;8.00;;;;;;;8.62;100.00;102103.41;5033457;28;20056;-73
2021/12/12 11:40:20;;;;;;;17.75;9.52;;;;;;;8.62;100.00;102100.75;5032796;28;20077;-73
2021/12/12 11:42:49;;;;;;;;;;;;;;;8.64;100.00;102110.47;5031727;28;20140;-74
2021/12/12 11:45:25;;;;;;;16.73;8.70;;;;;;;8.67;100.00;102109.59;5035748;28;20027;-74
2021/12/12 11:48:24;;;;;;;16.25;7.70;;;;;;;8.70;100.00;102115.78;5034068;28;20045;-73
2021/12/12 11:50:58;;;;;;;16.90;8.43;;;;;;;8.72;100.00;102111.34;4987611;28;20397;-73
2021/12/12 11:53:39;;;;;;;19.25;9.35;;;;;;;8.73;100.00;102120.19;5034066;28;20203;-73